Time;durP1;ratioP1;P1;durP2;ratioP2;P2;SDS_P1;SDS_P2;PMS_P1;PMS_P2;Temp;Humidity;BMP_temperature;BMP_pressure;BME280_temperature;BME280_humidity;BME280_pressure;Samples;Min_cycle;Max_cycle;Signal;HPM_P1;HPM_P2
2021/12/28 00:01:08;;;;;;;52.90;22.38;;;;;;;;;;5047388;28;20032;-67
2021/12/28 00:03:34;;;;;;;54.30;23.08;;;;;;;;;;5048735;28;20040;-67
2021/12/28 00:06:00;;;;;;;52.42;22.95;;;;;;;;;;5048398;28;20094;-68
2021/12/28 00:08:26;;;;;;;53.10;23.17;;;;;;;;;;5047898;28;20025;-67
2021/12/28 00:10:53;;;;;;;55.67;23.67;;;;;;;;;;5050285;28;20044;-67
2021/12/28 00:13:19;;;;;;;57.53;24.13;;;;;;;;;;5050835;28;20047;-67
2021/12/28 00:16:00;;;;;;;48.10;21.98;;;;;;;;;;5050919;28;20066;-67
2021/12/28 00:18:26;;;;;;;50.55;23.33;;;;;;;;;;5046528;28;20123;-67
2021/12/28 00:20:54;;;;;;;52.63;23.40;;;;;;;;;;5048338;28;20120;-67
2021/12/28 00:23:21;;;;;;;56.65;23.58;;;;;;;;;;5047786;28;20453;-67
2021/12/28 00:25:48;;;;;;;54.40;23.45;;;;;;;;;;5048427;28;20118;-67
2021/12/28 00:28:15;;;;;;;63.55;24.50;;;;;;;;;;5047912;28;21247;-67
2021/12/28 00:30:41;;;;;;;53.95;24.38;;;;;;;;;;5048806;28;20041;-67
2021/12/28 00:33:07;;;;;;;67.82;24.92;;;;;;;;;;5044679;28;20110;-67
2021/12/28 00:35:35;;;;;;;59.70;25.05;;;;;;;;;;5048081;28;20462;-67
2021/12/28 00:38:01;;;;;;;65.60;26.15;;;;;;;;;;5046462;28;20079;-68
2021/12/28 00:40:28;;;;;;;65.97;25.55;;;;;;;;;;5048493;28;20045;-68
2021/12/28 00:42:54;;;;;;;67.45;27.70;;;;;;;;;;5047822;28;20099;-67
2021/12/28 00:45:20;;;;;;;70.57;27.30;;;;;;;;;;5049281;28;20086;-67
2021/12/28 00:47:46;;;;;;;61.70;25.23;;;;;;;;;;5046717;28;20025;-67
2021/12/28 00:50:13;;;;;;;70.90;27.33;;;;;;;;;;5047987;28;20064;-68
2021/12/28 00:52:39;;;;;;;68.68;26.30;;;;;;;;;;5049013;28;20410;-68
2021/12/28 00:55:06;;;;;;;79.10;28.05;;;;;;;;;;5048456;28;20151;-67
2021/12/28 00:57:32;;;;;;;74.68;27.67;;;;;;;;;;5047418;28;20037;-68
2021/12/28 00:59:58;;;;;;;69.25;27.08;;;;;;;;;;5047451;28;20111;-68
2021/12/28 01:02:24;;;;;;;77.15;27.60;;;;;;;;;;5049015;28;20041;-68
2021/12/28 01:04:50;;;;;;;76.85;28.92;;;;;;;;;;5050692;28;20037;-68
2021/12/28 01:07:16;;;;;;;85.70;29.85;;;;;;;;;;5050765;28;20571;-67
2021/12/28 01:09:43;;;;;;;85.60;29.63;;;;;;;;;;5052642;28;20037;-67
2021/12/28 01:12:09;;;;;;;89.60;30.15;;;;;;;;;;5048450;28;20506;-67
2021/12/28 01:14:37;;;;;;;96.43;30.77;;;;;;;;;;5052042;28;20037;-67
2021/12/28 01:17:03;;;;;;;84.63;30.90;;;;;;;;;;5051154;28;20041;-68
2021/12/28 01:19:29;;;;;;;80.10;29.70;;;;;;;;;;5041027;28;20136;-68
2021/12/28 01:21:55;;;;;;;95.32;30.25;;;;;;;;;;5048517;28;20057;-68
2021/12/28 01:24:21;;;;;;;103.00;32.95;;;;;;;;;;5051566;28;20438;-68
2021/12/28 01:26:47;;;;;;;103.03;31.27;;;;;;;;;;5051747;28;20072;-68
2021/12/28 01:29:14;;;;;;;102.82;32.10;;;;;;;;;;5051738;28;20063;-67
2021/12/28 01:31:40;;;;;;;100.03;32.10;;;;;;;;;;5049641;28;20079;-68
2021/12/28 01:34:07;;;;;;;112.07;33.42;;;;;;;;;;5048044;28;20098;-67
2021/12/28 01:36:32;;;;;;;108.15;32.05;;;;;;;;;;5050201;28;20032;-68
2021/12/28 01:38:58;;;;;;;105.50;32.40;;;;;;;;;;5049753;28;20035;-67
2021/12/28 01:41:24;;;;;;;125.93;35.28;;;;;;;;;;5051929;28;20487;-67
2021/12/28 01:43:58;;;;;;;122.57;35.00;;;;;;;;;;5051568;28;20043;-68
2021/12/28 01:46:24;;;;;;;120.30;35.17;;;;;;;;;;5050493;28;20061;-67
2021/12/28 01:48:50;;;;;;;113.78;34.45;;;;;;;;;;5051478;28;20118;-67
2021/12/28 01:51:17;;;;;;;138.25;36.90;;;;;;;;;;5050034;28;20494;-68
2021/12/28 01:53:44;;;;;;;133.55;35.60;;;;;;;;;;5050021;28;20037;-68
2021/12/28 01:56:11;;;;;;;157.38;38.63;;;;;;;;;;5050160;28;20037;-68
2021/12/28 01:58:37;;;;;;;140.73;36.05;;;;;;;;;;5049304;28;20069;-68
2021/12/28 02:01:04;;;;;;;133.75;37.45;;;;;;;;;;5050677;28;20536;-67
2021/12/28 02:03:30;;;;;;;132.63;37.05;;;;;;;;;;5050214;28;20094;-68
2021/12/28 02:05:56;;;;;;;165.35;39.47;;;;;;;;;;5049313;28;20068;-67
2021/12/28 02:08:22;;;;;;;151.30;38.25;;;;;;;;;;5049576;28;20446;-68
2021/12/28 02:10:50;;;;;;;153.27;39.83;;;;;;;;;;5051160;28;20052;-68
2021/12/28 02:13:16;;;;;;;150.68;38.95;;;;;;;;;;5049961;28;20406;-68
2021/12/28 02:15:43;;;;;;;159.68;39.20;;;;;;;;;;5048565;28;20482;-68
2021/12/28 02:18:10;;;;;;;151.88;39.08;;;;;;;;;;5050759;28;20072;-67
2021/12/28 02:20:36;;;;;;;152.55;39.40;;;;;;;;;;5049586;28;20061;-67
2021/12/28 02:23:03;;;;;;;157.35;40.63;;;;;;;;;;5049955;28;20040;-67
2021/12/28 02:25:29;;;;;;;162.93;41.15;;;;;;;;;;5049542;28;20128;-67
2021/12/28 02:27:56;;;;;;;159.00;39.88;;;;;;;;;;5050102;28;20571;-68
2021/12/28 02:30:22;;;;;;;156.65;38.67;;;;;;;;;;5046706;28;20077;-68
2021/12/28 02:32:49;;;;;;;162.40;39.22;;;;;;;;;;5049093;28;20037;-68
2021/12/28 02:35:16;;;;;;;144.30;39.03;;;;;;;;;;5048502;28;20033;-68
2021/12/28 02:37:43;;;;;;;144.77;38.28;;;;;;;;;;5049071;28;20036;-67
2021/12/28 02:40:10;;;;;;;147.98;38.58;;;;;;;;;;5048622;28;20064;-68
2021/12/28 02:42:36;;;;;;;149.23;38.97;;;;;;;;;;5050209;28;20457;-67
2021/12/28 02:45:12;;;;;;;146.65;38.65;;;;;;;;;;5048969;28;20064;-67
2021/12/28 02:47:38;;;;;;;143.73;37.38;;;;;;;;;;5047537;28;20120;-67
2021/12/28 02:50:06;;;;;;;133.52;36.35;;;;;;;;;;5049061;28;20155;-67
2021/12/28 02:52:38;;;;;;;140.38;37.30;;;;;;;;;;5049241;28;20475;-68
2021/12/28 02:55:09;;;;;;;163.38;39.65;;;;;;;;;;5044604;28;20047;-67
2021/12/28 02:57:35;;;;;;;156.43;39.45;;;;;;;;;;5049583;28;20087;-67
2021/12/28 03:00:01;;;;;;;135.45;37.58;;;;;;;;;;5047991;28;20124;-67
2021/12/28 03:02:27;;;;;;;142.10;37.15;;;;;;;;;;5047529;28;20038;-67
2021/12/28 03:04:53;;;;;;;152.20;38.70;;;;;;;;;;5044995;28;20098;-67
2021/12/28 03:07:19;;;;;;;146.57;39.47;;;;;;;;;;5048170;28;20284;-67
2021/12/28 03:09:45;;;;;;;140.13;38.38;;;;;;;;;;5048850;28;20037;-67
2021/12/28 03:12:12;;;;;;;132.13;37.95;;;;;;;;;;5047325;28;20389;-67
2021/12/28 03:14:38;;;;;;;139.55;37.95;;;;;;;;;;5047377;28;20111;-67
2021/12/28 03:17:05;;;;;;;151.05;38.90;;;;;;;;;;5048310;28;20128;-67
2021/12/28 03:19:31;;;;;;;156.63;40.28;;;;;;;;;;5049943;28;20136;-67
2021/12/28 03:21:58;;;;;;;181.55;40.33;;;;;;;;;;5046701;28;20114;-67
2021/12/28 03:24:24;;;;;;;166.15;39.65;;;;;;;;;;5047254;28;20058;-68
2021/12/28 03:26:50;;;;;;;187.68;40.60;;;;;;;;;;5047653;28;20067;-67
2021/12/28 03:29:16;;;;;;;155.23;37.78;;;;;;;;;;5046018;28;20072;-67
2021/12/28 03:31:42;;;;;;;164.80;39.58;;;;;;;;;;5042824;28;20501;-67
2021/12/28 03:34:08;;;;;;;181.00;39.65;;;;;;;;;;5049137;28;20037;-67
2021/12/28 03:36:34;;;;;;;293.08;46.78;;;;;;;;;;5047993;28;20029;-67
2021/12/28 03:39:01;;;;;;;421.33;53.35;;;;;;;;;;5047599;28;20033;-67
2021/12/28 03:41:29;;;;;;;483.55;57.42;;;;;;;;;;5045548;28;20036;-67
2021/12/28 03:43:56;;;;;;;503.77;57.22;;;;;;;;;;5047131;28;20040;-67
2021/12/28 03:46:23;;;;;;;466.15;54.13;;;;;;;;;;5049500;28;20043;-67
2021/12/28 03:48:49;;;;;;;556.67;62.65;;;;;;;;;;5049138;28;20063;-68
2021/12/28 03:51:15;;;;;;;486.42;55.15;;;;;;;;;;5048361;28;20040;-67
2021/12/28 03:53:41;;;;;;;457.85;51.15;;;;;;;;;;5048340;28;20036;-68
2021/12/28 03:56:08;;;;;;;454.83;51.08;;;;;;;;;;5049980;28;20040;-67
2021/12/28 03:58:35;;;;;;;494.00;54.85;;;;;;;;;;5048026;28;20037;-67
2021/12/28 04:01:03;;;;;;;554.55;58.13;;;;;;;;;;5051199;28;20039;-67
2021/12/28 04:03:29;;;;;;;503.27;55.15;;;;;;;;;;5051426;28;20048;-67
2021/12/28 04:05:55;;;;;;;418.23;49.95;;;;;;;;;;5049143;28;20033;-67
2021/12/28 04:08:23;;;;;;;288.83;41.00;;;;;;;;;;5050501;28;20037;-67
2021/12/28 04:10:53;;;;;;;327.55;44.60;;;;;;;;;;5050201;28;20112;-67
2021/12/28 04:13:20;;;;;;;424.80;49.22;;;;;;;;;;5049808;28;20041;-67
2021/12/28 04:15:46;;;;;;;365.77;47.63;;;;;;;;;;5051480;28;20384;-67
2021/12/28 04:18:12;;;;;;;340.95;48.75;;;;;;;;;;5049824;28;20040;-67
2021/12/28 04:20:38;;;;;;;320.92;45.60;;;;;;;;;;5049483;28;20060;-67
2021/12/28 04:23:04;;;;;;;217.27;39.17;;;;;;;;;;5050011;28;20387;-67
2021/12/28 04:25:31;;;;;;;269.55;42.75;;;;;;;;;;5049737;28;20044;-68
2021/12/28 04:27:57;;;;;;;193.85;39.38;;;;;;;;;;5049104;28;20045;-68
2021/12/28 04:30:23;;;;;;;230.38;40.97;;;;;;;;;;5048028;28;20036;-67
2021/12/28 04:32:49;;;;;;;232.73;39.95;;;;;;;;;;5050865;28;20044;-67
2021/12/28 04:35:16;;;;;;;200.15;37.70;;;;;;;;;;5052302;22;20038;-65
2021/12/28 04:37:42;;;;;;;160.30;35.65;;;;;;;;;;5029965;28;20041;-65
2021/12/28 04:40:10;;;;;;;142.18;34.22;;;;;;;;;;5043840;28;20187;-64
2021/12/28 04:42:35;;;;;;;160.30;35.55;;;;;;;;;;5030540;28;20038;-64
2021/12/28 04:45:02;;;;;;;164.07;36.92;;;;;;;;;;5033122;28;20486;-64
2021/12/28 04:47:28;;;;;;;208.50;37.45;;;;;;;;;;5044513;28;20160;-64
2021/12/28 04:49:54;;;;;;;143.70;32.97;;;;;;;;;;5022386;28;20500;-63
2021/12/28 04:52:20;;;;;;;175.77;35.78;;;;;;;;;;5030173;28;20068;-63
2021/12/28 04:54:46;;;;;;;158.98;35.20;;;;;;;;;;5028292;28;20125;-62
2021/12/28 04:57:12;;;;;;;174.65;34.90;;;;;;;;;;5033878;28;20132;-63
2021/12/28 04:59:38;;;;;;;160.75;35.08;;;;;;;;;;5031396;28;20077;-62
2021/12/28 05:02:04;;;;;;;130.05;31.42;;;;;;;;;;5035452;28;20037;-62
2021/12/28 05:04:30;;;;;;;133.52;31.70;;;;;;;;;;5040620;28;20079;-62
2021/12/28 05:06:56;;;;;;;127.25;30.75;;;;;;;;;;5040185;28;20063;-63
2021/12/28 05:09:23;;;;;;;129.75;29.70;;;;;;;;;;5035849;28;20052;-62
2021/12/28 05:11:50;;;;;;;115.78;28.42;;;;;;;;;;5032184;28;20045;-63
2021/12/28 05:14:17;;;;;;;97.80;27.05;;;;;;;;;;5037699;28;20509;-63
2021/12/28 05:16:43;;;;;;;95.20;27.30;;;;;;;;;;5042275;28;20163;-62
2021/12/28 05:19:10;;;;;;;103.53;28.20;;;;;;;;;;5042947;28;20064;-62
2021/12/28 05:21:36;;;;;;;102.93;27.55;;;;;;;;;;5036419;28;20049;-63
2021/12/28 05:24:03;;;;;;;88.35;25.80;;;;;;;;;;5041287;28;20087;-63
2021/12/28 05:26:29;;;;;;;98.53;26.17;;;;;;;;;;5039406;28;20033;-62
2021/12/28 05:28:55;;;;;;;86.80;25.05;;;;;;;;;;5034827;28;20095;-62
2021/12/28 05:31:21;;;;;;;84.03;26.02;;;;;;;;;;5034500;28;20763;-63
2021/12/28 05:33:48;;;;;;;92.13;27.02;;;;;;;;;;5042743;28;20049;-62
2021/12/28 05:36:15;;;;;;;89.88;26.27;;;;;;;;;;5044327;28;20406;-62
2021/12/28 05:38:41;;;;;;;91.43;25.00;;;;;;;;;;5032506;28;20041;-62
2021/12/28 05:41:07;;;;;;;78.43;24.10;;;;;;;;;;5037859;28;20106;-62
2021/12/28 05:43:33;;;;;;;92.82;25.42;;;;;;;;;;5035251;28;20076;-63
2021/12/28 05:45:59;;;;;;;86.38;24.20;;;;;;;;;;5043087;28;20036;-62
2021/12/28 05:48:25;;;;;;;76.10;23.33;;;;;;;;;;5034326;28;20406;-63
2021/12/28 05:50:52;;;;;;;85.05;23.45;;;;;;;;;;5036670;28;20107;-62
2021/12/28 05:53:18;;;;;;;75.80;22.63;;;;;;;;;;5034095;28;20047;-63
2021/12/28 05:55:44;;;;;;;73.57;23.52;;;;;;;;;;5038714;28;20030;-62
2021/12/28 05:58:10;;;;;;;71.70;22.23;;;;;;;;;;5037038;28;20033;-62
2021/12/28 06:00:36;;;;;;;72.65;22.67;;;;;;;;;;5031399;28;20519;-62
2021/12/28 06:03:02;;;;;;;58.85;20.98;;;;;;;;;;5038528;28;20036;-62
2021/12/28 06:05:29;;;;;;;64.22;20.98;;;;;;;;;;5044491;28;20390;-62
2021/12/28 06:07:55;;;;;;;65.65;21.52;;;;;;;;;;5038219;28;20033;-62
2021/12/28 06:10:21;;;;;;;61.45;19.38;;;;;;;;;;5034018;28;20859;-62
2021/12/28 06:12:47;;;;;;;59.95;21.05;;;;;;;;;;5039207;28;20064;-63
2021/12/28 06:15:13;;;;;;;65.80;20.60;;;;;;;;;;5028835;28;20116;-62
2021/12/28 06:17:39;;;;;;;60.90;20.45;;;;;;;;;;5038782;28;20418;-62
2021/12/28 06:20:06;;;;;;;65.22;19.33;;;;;;;;;;5036570;28;20090;-63
2021/12/28 06:22:32;;;;;;;53.30;19.08;;;;;;;;;;5039748;28;20084;-63
2021/12/28 06:24:58;;;;;;;53.90;19.15;;;;;;;;;;5040583;28;20080;-62
2021/12/28 06:27:24;;;;;;;55.40;19.27;;;;;;;;;;5038049;28;20041;-62
2021/12/28 06:29:50;;;;;;;48.70;18.95;;;;;;;;;;5025131;28;20037;-63
2021/12/28 06:32:16;;;;;;;52.08;18.40;;;;;;;;;;5022900;28;20495;-63
2021/12/28 06:34:42;;;;;;;55.42;18.92;;;;;;;;;;5024642;28;20034;-63
2021/12/28 06:37:08;;;;;;;52.63;18.77;;;;;;;;;;5028038;28;20030;-62
2021/12/28 06:39:34;;;;;;;49.67;17.48;;;;;;;;;;5017579;28;20036;-63
2021/12/28 06:42:00;;;;;;;54.88;18.90;;;;;;;;;;5021585;28;20052;-63
2021/12/28 06:44:27;;;;;;;50.58;18.33;;;;;;;;;;5007730;28;20574;-62
2021/12/28 06:46:53;;;;;;;50.67;18.55;;;;;;;;;;5019728;28;20033;-62
2021/12/28 06:49:19;;;;;;;58.92;18.45;;;;;;;;;;5022630;28;20045;-62
2021/12/28 06:51:45;;;;;;;53.15;18.75;;;;;;;;;;5026554;28;20042;-62
2021/12/28 06:54:11;;;;;;;49.20;18.67;;;;;;;;;;5029268;28;20056;-62
2021/12/28 06:56:37;;;;;;;51.90;17.45;;;;;;;;;;5026728;28;20042;-63
2021/12/28 06:59:03;;;;;;;53.33;18.08;;;;;;;;;;5024283;28;20049;-62
2021/12/28 07:01:30;;;;;;;50.45;17.58;;;;;;;;;;5030008;28;20084;-62
2021/12/28 07:03:55;;;;;;;49.70;17.48;;;;;;;;;;5007046;28;20045;-62
2021/12/28 07:06:24;;;;;;;50.28;16.45;;;;;;;;;;4996809;28;20073;-62
2021/12/28 07:08:50;;;;;;;44.70;18.20;;;;;;;;;;4996757;28;20041;-62
2021/12/28 07:11:17;;;;;;;50.50;16.55;;;;;;;;;;5003815;28;20034;-62
2021/12/28 07:13:44;;;;;;;45.45;16.30;;;;;;;;;;5028691;28;20045;-62
2021/12/28 07:16:10;;;;;;;36.92;15.32;;;;;;;;;;5014367;28;20069;-62
2021/12/28 07:18:35;;;;;;;38.67;16.05;;;;;;;;;;5022575;28;20061;-62
2021/12/28 07:21:02;;;;;;;40.25;15.63;;;;;;;;;;5026689;28;20045;-62
2021/12/28 07:23:29;;;;;;;42.70;15.18;;;;;;;;;;5025854;28;20048;-62
2021/12/28 07:25:55;;;;;;;37.30;15.10;;;;;;;;;;5026762;28;20040;-62
2021/12/28 07:28:22;;;;;;;44.88;14.68;;;;;;;;;;5024557;28;20042;-62
2021/12/28 07:30:48;;;;;;;35.03;15.13;;;;;;;;;;5045677;28;20038;-62
2021/12/28 07:33:14;;;;;;;39.47;15.55;;;;;;;;;;5024410;28;20120;-62
2021/12/28 07:35:40;;;;;;;86.57;21.08;;;;;;;;;;5025693;28;20093;-62
2021/12/28 07:38:06;;;;;;;37.90;15.18;;;;;;;;;;5028563;28;20091;-62
2021/12/28 07:40:32;;;;;;;32.70;13.55;;;;;;;;;;5026167;28;20465;-61
2021/12/28 07:42:58;;;;;;;47.88;15.05;;;;;;;;;;5030653;28;20045;-62
2021/12/28 07:45:24;;;;;;;32.95;13.95;;;;;;;;;;5025108;28;20055;-62
2021/12/28 07:47:50;;;;;;;49.08;17.40;;;;;;;;;;5024909;28;20441;-62
2021/12/28 07:50:17;;;;;;;42.47;14.88;;;;;;;;;;5018660;28;20506;-62
2021/12/28 07:52:44;;;;;;;32.50;13.85;;;;;;;;;;5027700;28;20530;-62
2021/12/28 07:55:11;;;;;;;40.00;14.23;;;;;;;;;;5024102;28;20037;-62
2021/12/28 07:57:37;;;;;;;76.20;18.65;;;;;;;;;;5027367;28;20407;-62
2021/12/28 08:00:09;;;;;;;38.83;14.18;;;;;;;;;;5027445;28;20052;-62
2021/12/28 08:02:35;;;;;;;32.20;12.93;;;;;;;;;;5022766;28;20041;-62
2021/12/28 08:05:01;;;;;;;64.85;16.00;;;;;;;;;;5013467;28;20145;-62
2021/12/28 08:07:27;;;;;;;28.75;11.82;;;;;;;;;;5021080;28;20483;-62
2021/12/28 08:09:53;;;;;;;30.77;12.85;;;;;;;;;;5030651;28;20041;-62
2021/12/28 08:12:19;;;;;;;28.25;11.68;;;;;;;;;;5019081;28;20089;-62
2021/12/28 08:14:45;;;;;;;35.40;12.10;;;;;;;;;;5033042;28;20045;-62
2021/12/28 08:17:11;;;;;;;29.98;12.27;;;;;;;;;;5023429;28;20120;-62
2021/12/28 08:19:37;;;;;;;28.52;11.35;;;;;;;;;;5016632;28;20447;-63
2021/12/28 08:22:04;;;;;;;32.20;11.93;;;;;;;;;;5023965;28;20045;-63
2021/12/28 08:24:30;;;;;;;31.90;11.68;;;;;;;;;;5026164;28;20045;-62
2021/12/28 08:26:56;;;;;;;32.50;11.93;;;;;;;;;;5027481;28;20088;-62
2021/12/28 08:29:24;;;;;;;32.40;11.35;;;;;;;;;;5030676;28;20049;-63
2021/12/28 08:31:50;;;;;;;27.48;11.57;;;;;;;;;;5026952;28;20049;-63
2021/12/28 08:34:16;;;;;;;29.33;11.48;;;;;;;;;;5032808;28;20411;-63
2021/12/28 08:36:42;;;;;;;29.73;11.10;;;;;;;;;;5023421;28;20042;-62
2021/12/28 08:39:08;;;;;;;33.40;11.32;;;;;;;;;;5024315;28;20030;-63
2021/12/28 08:41:34;;;;;;;28.55;10.35;;;;;;;;;;5029976;28;20045;-63
2021/12/28 08:44:00;;;;;;;22.33;10.95;;;;;;;;;;5022412;28;20041;-62
2021/12/28 08:46:26;;;;;;;34.55;12.55;;;;;;;;;;5016067;28;20124;-62
2021/12/28 08:48:52;;;;;;;60.22;15.18;;;;;;;;;;5018489;28;20503;-62
2021/12/28 08:51:18;;;;;;;25.67;10.00;;;;;;;;;;5020913;28;20038;-62
2021/12/28 08:53:44;;;;;;;34.95;10.68;;;;;;;;;;5015323;28;20033;-63
2021/12/28 08:56:10;;;;;;;27.08;10.95;;;;;;;;;;5028571;28;20391;-62
2021/12/28 08:58:36;;;;;;;26.00;10.70;;;;;;;;;;5034906;28;20041;-63
2021/12/28 09:01:03;;;;;;;25.27;10.23;;;;;;;;;;5026957;28;20034;-62
2021/12/28 09:03:29;;;;;;;21.38;10.27;;;;;;;;;;5032374;28;20084;-63
2021/12/28 09:05:55;;;;;;;23.85;9.98;;;;;;;;;;5025923;28;20114;-62
2021/12/28 09:08:21;;;;;;;27.10;9.82;;;;;;;;;;5015041;28;20077;-62
2021/12/28 09:10:48;;;;;;;28.08;9.98;;;;;;;;;;5021734;28;20050;-62
2021/12/28 09:13:14;;;;;;;25.67;9.52;;;;;;;;;;5025890;28;20049;-62
2021/12/28 09:15:40;;;;;;;31.73;9.70;;;;;;;;;;5021794;28;20042;-62
2021/12/28 09:18:06;;;;;;;28.10;9.63;;;;;;;;;;5026330;28;20072;-62
2021/12/28 09:20:33;;;;;;;26.30;9.35;;;;;;;;;;5027183;28;20674;-63
2021/12/28 09:22:59;;;;;;;205.65;27.08;;;;;;;;;;5033335;28;20037;-63
2021/12/28 09:25:25;;;;;;;25.33;9.27;;;;;;;;;;5018443;28;20121;-62
2021/12/28 09:27:51;;;;;;;29.65;9.63;;;;;;;;;;5023974;28;20045;-62
2021/12/28 09:30:18;;;;;;;23.45;9.38;;;;;;;;;;5028398;28;20043;-63
2021/12/28 09:32:44;;;;;;;26.23;9.10;;;;;;;;;;5032651;28;20121;-63
2021/12/28 09:35:11;;;;;;;27.33;8.63;;;;;;;;;;5025398;28;20034;-62
2021/12/28 09:37:37;;;;;;;25.00;9.30;;;;;;;;;;5019558;28;20125;-62
2021/12/28 09:40:05;;;;;;;23.85;8.40;;;;;;;;;;5024812;28;20491;-63
2021/12/28 09:42:31;;;;;;;31.40;8.80;;;;;;;;;;5032941;28;20045;-62
2021/12/28 09:44:57;;;;;;;25.00;8.50;;;;;;;;;;5016070;28;20049;-62
2021/12/28 09:47:23;;;;;;;26.27;8.38;;;;;;;;;;5022226;28;20044;-62
2021/12/28 09:49:49;;;;;;;27.33;8.52;;;;;;;;;;5030627;28;20056;-62
2021/12/28 09:52:16;;;;;;;26.42;9.30;;;;;;;;;;5020124;28;20124;-62
2021/12/28 09:54:42;;;;;;;30.10;8.85;;;;;;;;;;5013589;28;20038;-62
2021/12/28 09:57:09;;;;;;;24.55;8.82;;;;;;;;;;5027961;28;20045;-62
2021/12/28 09:59:35;;;;;;;24.80;8.43;;;;;;;;;;5029404;28;20033;-62
2021/12/28 10:02:08;;;;;;;24.35;8.68;;;;;;;;;;5027979;28;20048;-62
2021/12/28 10:04:35;;;;;;;26.55;8.80;;;;;;;;;;5019373;28;20038;-62
2021/12/28 10:07:18;;;;;;;29.27;8.75;;;;;;;;;;5030759;28;20041;-62
2021/12/28 10:09:45;;;;;;;23.95;8.10;;;;;;;;;;5033448;28;20112;-62
2021/12/28 10:12:11;;;;;;;20.33;8.10;;;;;;;;;;5023420;28;20042;-62
2021/12/28 10:14:37;;;;;;;23.05;8.32;;;;;;;;;;5025916;28;20479;-62
2021/12/28 10:17:05;;;;;;;18.40;8.00;;;;;;;;;;5023221;28;20034;-62
2021/12/28 10:19:41;;;;;;;27.65;8.63;;;;;;;;;;5013570;28;20048;-62
2021/12/28 10:22:20;;;;;;;28.00;7.95;;;;;;;;;;5023183;28;20041;-61
2021/12/28 10:24:46;;;;;;;21.65;8.45;;;;;;;;;;5023142;28;20041;-61
2021/12/28 10:27:14;;;;;;;20.73;8.52;;;;;;;;;;5018270;28;20037;-62
2021/12/28 10:29:40;;;;;;;22.42;8.55;;;;;;;;;;5023014;28;20033;-61
2021/12/28 10:32:16;;;;;;;23.50;8.55;;;;;;;;;;5033122;28;20052;-62
2021/12/28 10:34:46;;;;;;;24.95;8.85;;;;;;;;;;5048421;22;20045;-66
2021/12/28 10:37:19;;;;;;;20.33;8.32;;;;;;;;;;5026716;28;20041;-66
2021/12/28 10:39:46;;;;;;;36.75;8.45;;;;;;;;;;5031438;28;20037;-67
2021/12/28 10:42:31;;;;;;;24.10;8.20;;;;;;;;;;5027452;28;20045;-65
2021/12/28 10:44:59;;;;;;;32.42;8.30;;;;;;;;;;5028652;28;20052;-65
2021/12/28 10:47:28;;;;;;;29.08;8.32;;;;;;;;;;5028910;28;20038;-65
2021/12/28 10:49:54;;;;;;;24.83;8.43;;;;;;;;;;5029884;28;20099;-65
2021/12/28 10:52:37;;;;;;;25.80;8.30;;;;;;;;;;5021790;28;20046;-65
2021/12/28 10:55:20;;;;;;;27.58;8.40;;;;;;;;;;5030723;28;20080;-65
2021/12/28 10:57:46;;;;;;;24.88;7.80;;;;;;;;;;5033481;28;20548;-65
2021/12/28 11:00:25;;;;;;;22.80;8.20;;;;;;;;;;5030669;28;20041;-65
2021/12/28 11:02:51;;;;;;;25.02;7.57;;;;;;;;;;5031405;28;20064;-65
2021/12/28 11:05:33;;;;;;;26.48;8.07;;;;;;;;;;5031521;28;20048;-65
2021/12/28 11:07:59;;;;;;;24.38;9.25;;;;;;;;;;5029558;28;20045;-65
2021/12/28 11:10:29;;;;;;;27.45;8.38;;;;;;;;;;5027812;28;20060;-65
2021/12/28 11:12:55;;;;;;;24.63;8.75;;;;;;;;;;5027298;28;20511;-66
2021/12/28 11:15:22;;;;;;;30.02;9.15;;;;;;;;;;5031404;28;20045;-66
2021/12/28 11:17:48;;;;;;;24.73;8.85;;;;;;;;;;5031753;28;20125;-66
2021/12/28 11:20:14;;;;;;;29.63;9.43;;;;;;;;;;5030972;28;20144;-65
2021/12/28 11:22:40;;;;;;;31.95;8.57;;;;;;;;;;5030554;28;20037;-66
2021/12/28 11:25:22;;;;;;;26.10;9.18;;;;;;;;;;5030479;28;20589;-65
2021/12/28 11:27:48;;;;;;;32.42;9.77;;;;;;;;;;5026672;28;20077;-66
2021/12/28 11:30:15;;;;;;;28.20;9.73;;;;;;;;;;5031337;28;20130;-65
2021/12/28 11:32:41;;;;;;;28.85;9.82;;;;;;;;;;5029833;28;20046;-65
2021/12/28 11:35:07;;;;;;;31.27;10.13;;;;;;;;;;5027814;28;20060;-65
2021/12/28 11:37:34;;;;;;;30.38;9.48;;;;;;;;;;5030755;28;20156;-66
2021/12/28 11:40:01;;;;;;;29.67;10.40;;;;;;;;;;5030858;28;20402;-65
2021/12/28 11:42:28;;;;;;;33.08;10.05;;;;;;;;;;5031348;28;20506;-65
2021/12/28 11:44:55;;;;;;;34.38;10.45;;;;;;;;;;5026313;28;20048;-66
2021/12/28 11:47:22;;;;;;;31.25;10.82;;;;;;;;;;5022795;28;20420;-66
2021/12/28 11:49:49;;;;;;;34.83;12.40;;;;;;;;;;5012368;28;20045;-66
2021/12/28 11:52:17;;;;;;;36.85;13.73;;;;;;;;;;5030363;28;20046;-65
2021/12/28 11:54:44;;;;;;;37.53;14.50;;;;;;;;;;5029685;28;20037;-65
2021/12/28 11:57:12;;;;;;;31.85;13.68;;;;;;;;;;5031518;28;20083;-66
2021/12/28 11:59:39;;;;;;;35.67;17.48;;;;;;;;;;5029038;28;20121;-66
2021/12/28 12:02:06;;;;;;;41.45;19.25;;;;;;;;;;5024042;28;20074;-66
2021/12/28 12:04:32;;;;;;;34.70;16.73;;;;;;;;;;5027654;28;20037;-66
2021/12/28 12:06:58;;;;;;;41.28;16.63;;;;;;;;;;5025346;28;20034;-66
2021/12/28 12:09:25;;;;;;;33.28;13.50;;;;;;;;;;5022241;28;20107;-67
2021/12/28 12:12:10;;;;;;;36.10;14.63;;;;;;;;;;5029329;28;20042;-66
2021/12/28 12:14:57;;;;;;;32.40;14.10;;;;;;;;;;5029236;28;20117;-66
2021/12/28 12:17:26;;;;;;;42.33;14.43;;;;;;;;;;5025693;28;20067;-66
2021/12/28 12:19:53;;;;;;;29.85;13.45;;;;;;;;;;5029649;28;20034;-66
2021/12/28 12:22:31;;;;;;;32.05;13.40;;;;;;;;;;5030540;28;20058;-66
2021/12/28 12:24:57;;;;;;;36.60;14.77;;;;;;;;;;5030729;28;20506;-66
2021/12/28 12:27:37;;;;;;;33.08;14.70;;;;;;;;;;5031029;28;20069;-66
2021/12/28 12:30:04;;;;;;;33.33;14.55;;;;;;;;;;5030857;28;20045;-66
2021/12/28 12:32:50;;;;;;;35.63;14.98;;;;;;;;;;5030851;28;20088;-66
2021/12/28 12:35:32;;;;;;;36.45;14.82;;;;;;;;;;5029290;28;20037;-66
2021/12/28 12:37:59;;;;;;;35.65;15.57;;;;;;;;;;5030423;28;20033;-66
2021/12/28 12:40:45;;;;;;;34.47;15.55;;;;;;;;;;5043373;28;20056;-66
2021/12/28 12:43:12;;;;;;;30.48;14.35;;;;;;;;;;5017141;28;20320;-66
2021/12/28 12:45:54;;;;;;;39.05;16.92;;;;;;;;;;5030279;28;20038;-66
2021/12/28 12:48:30;;;;;;;33.13;15.85;;;;;;;;;;5030243;28;20053;-66
2021/12/28 12:51:16;;;;;;;42.35;16.83;;;;;;;;;;5030190;28;20037;-66
2021/12/28 12:53:43;;;;;;;36.63;16.80;;;;;;;;;;5029307;28;20041;-66
2021/12/28 12:56:15;;;;;;;36.45;16.45;;;;;;;;;;5030320;28;20034;-66
2021/12/28 12:58:44;;;;;;;32.28;15.60;;;;;;;;;;5033296;28;20072;-66
2021/12/28 13:01:19;;;;;;;33.03;15.27;;;;;;;;;;5034492;28;20114;-66
2021/12/28 13:03:45;;;;;;;35.35;16.73;;;;;;;;;;5016980;28;20087;-66
2021/12/28 13:06:11;;;;;;;38.50;16.60;;;;;;;;;;5025613;28;20030;-66
2021/12/28 13:08:37;;;;;;;36.05;16.73;;;;;;;;;;5031178;28;20574;-66
2021/12/28 13:11:03;;;;;;;38.35;16.92;;;;;;;;;;5032231;28;20060;-66
2021/12/28 13:13:29;;;;;;;40.15;18.33;;;;;;;;;;5032585;28;20045;-65
2021/12/28 13:15:55;;;;;;;37.88;16.95;;;;;;;;;;5033240;28;20038;-66
2021/12/28 13:18:21;;;;;;;40.35;18.55;;;;;;;;;;5029905;28;20045;-66
2021/12/28 13:20:49;;;;;;;41.40;20.80;;;;;;;;;;5032423;28;20044;-66
2021/12/28 13:23:15;;;;;;;42.03;19.75;;;;;;;;;;5022978;28;20042;-66
2021/12/28 13:25:47;;;;;;;40.28;19.13;;;;;;;;;;5028172;28;20064;-66
2021/12/28 13:28:15;;;;;;;37.85;17.88;;;;;;;;;;5032055;28;20045;-66
2021/12/28 13:30:42;;;;;;;40.15;18.92;;;;;;;;;;5029151;28;20069;-66
2021/12/28 13:33:09;;;;;;;36.65;17.20;;;;;;;;;;5030271;28;20121;-66
2021/12/28 13:35:36;;;;;;;36.85;16.33;;;;;;;;;;5025016;28;20033;-66
2021/12/28 13:38:04;;;;;;;35.70;16.63;;;;;;;;;;5032776;28;20049;-66
2021/12/28 13:40:35;;;;;;;34.03;16.20;;;;;;;;;;5031973;28;20044;-66
2021/12/28 13:43:01;;;;;;;32.22;15.90;;;;;;;;;;5027348;28;20516;-66
2021/12/28 13:45:33;;;;;;;31.40;16.58;;;;;;;;;;5032597;28;20073;-66
2021/12/28 13:48:00;;;;;;;32.90;15.20;;;;;;;;;;5033347;28;20037;-66
2021/12/28 13:50:26;;;;;;;28.13;14.88;;;;;;;;;;5032747;28;20495;-66
2021/12/28 13:52:54;;;;;;;34.65;16.45;;;;;;;;;;5030671;28;20068;-66
2021/12/28 13:55:33;;;;;;;38.90;17.38;;;;;;;;;;5032539;28;20171;-66
2021/12/28 13:58:00;;;;;;;43.72;18.08;;;;;;;;;;5028970;28;20033;-65
2021/12/28 14:00:29;;;;;;;44.42;17.95;;;;;;;;;;5031025;28;20056;-65
2021/12/28 14:02:57;;;;;;;50.42;21.13;;;;;;;;;;5032180;28;20509;-65
2021/12/28 14:05:23;;;;;;;54.92;19.25;;;;;;;;;;5030163;28;20041;-65
2021/12/28 14:07:50;;;;;;;58.67;19.73;;;;;;;;;;5031668;28;20037;-65
2021/12/28 14:10:16;;;;;;;64.78;23.73;;;;;;;;;;5031544;28;20501;-65
2021/12/28 14:12:42;;;;;;;84.43;22.80;;;;;;;;;;5027176;28;20557;-65
2021/12/28 14:15:14;;;;;;;42.03;18.15;;;;;;;;;;5030010;28;20034;-65
2021/12/28 14:17:40;;;;;;;31.10;15.23;;;;;;;;;;5032727;28;20045;-65